Slotergracht — PDBP — position and weather

sailwx.info

Track history (hours):
 
Tides and Currents Weather Stations Pressure Air Temp Water Temp Dewpoint Dewpoint Depression Visibility Wind Speed Wind Dir Waves Ship Positions

Slotergracht

Last reported at 2016-May-27 20:17 UTC. Time now 2016-May-28 06:02 UTC.
Position N 57°47' E 010°12'.

Length 168 m; beam 25 m.

Type: Cargo ship. MMSI: 246456000.

Date/timePositionNaut miles runAvg speedWind from/ knotsBaromVisibWave heightAir tempDewpointWater temp
2016-May-27 20:17N 57°47' E 010°12'1317.7
2016-May-27 19:33N 57°49' E 010°36'10 9.8
2016-May-27 18:33N 57°42' E 010°49'5 2.1
2016-May-27 16:22N 57°42' E 010°40'0 0.0
2016-May-27 14:22N 57°42' E 010°40'0 0.0
2016-May-27 13:33N 57°42' E 010°40'0 0.0
2016-May-27 12:27N 57°42' E 010°40'0 0.1
2016-May-27 11:33N 57°42' E 010°40'1212.1
2016-May-27 10:33N 57°39' E 011°02'1717.3
2016-May-27 09:33N 57°28' E 011°27'1818.0
2016-May-27 08:33N 57°11' E 011°38'1817.8
2016-May-27 07:33N 56°54' E 011°49'1616.4
2016-May-27 06:33N 56°38' E 011°46'1818.1
2016-May-27 05:33N 56°22' E 011°29'2017.7
2016-May-27 04:26N 56°06' E 011°09'1717.8
2016-May-27 03:28N 55°51' E 010°52'1617.0
2016-May-27 02:31N 55°35' E 010°50'1717.5
2016-May-27 01:34N 55°20' E 011°03'1413.9
2016-May-27 00:34N 55°06' E 010°59'1817.6
2016-May-26 23:34N 54°50' E 010°50'1414.4
2016-May-26 22:34N 54°36' E 010°60'1818.0
2016-May-26 21:34N 54°31' E 011°29'1817.9
2016-May-26 20:33N 54°26' E 011°59'1514.9
2016-May-26 19:32N 54°37' E 012°17'1717.4
2016-May-26 18:34N 54°47' E 012°41'1817.9
2016-May-26 17:33N 54°53' E 013°10'1818.2
2016-May-26 16:34N 54°59' E 013°40'1717.4
2016-May-26 15:34N 55°07' E 014°07'1818.2
2016-May-26 14:33N 55°21' E 014°28'1818.0
2016-May-26 13:33N 55°32' E 014°52'  
2016-May-21 03:25N 55°40' E 015°33'1315.4
2016-May-21 02:33N 55°34' E 015°12'1515.6
2016-May-21 01:33N 55°26' E 014°49'1514.9
2016-May-21 00:34N 55°16' E 014°29'1515.3
2016-May-20 23:33N 55°04' E 014°12'1515.2
2016-May-20 22:33N 54°57' E 013°48'1715.7
2016-May-20 21:30N 54°52' E 013°21'1615.7
2016-May-20 20:30N 54°47' E 012°55'1515.7
2016-May-20 19:33N 54°40' E 012°32'1515.1
2016-May-20 18:33N 54°29' E 012°15'1413.9
2016-May-20 17:34N 54°25' E 011°52'1615.6
2016-May-20 16:33N 54°30' E 011°27'1616.0
2016-May-20 15:33N 54°38' E 011°03'1414.2
2016-May-20 14:33N 54°51' E 010°52'1514.7
2016-May-20 13:34N 55°04' E 011°02'1514.7
2016-May-20 12:33N 55°19' E 011°02'4313.8
2016-May-20 09:28N 56°01' E 011°05'3115.7
2016-May-20 07:28N 56°28' E 011°33'1415.5
2016-May-20 06:34N 56°40' E 011°46'1414.3
2016-May-20 05:33N 56°55' E 011°46'1515.1
2016-May-20 04:33N 57°09' E 011°37'1515.0
2016-May-20 03:33N 57°23' E 011°27'1515.0
2016-May-20 02:33N 57°37' E 011°19'1615.5
2016-May-20 01:33N 57°52' E 011°12'1615.7
2016-May-20 00:33N 58°08' E 011°04'1515.2
2016-May-19 23:34N 58°22' E 010°56'1515.3
2016-May-19 22:33N 58°37' E 010°48'1515.2
2016-May-19 21:33N 58°52' E 010°42'1515.3
2016-May-19 20:33N 59°07' E 010°36'1615.7
2016-May-19 19:33N 59°23' E 010°33'10 9.9
2016-May-19 18:33N 59°29' E 010°19'0 0.0
2016-May-19 17:33N 59°29' E 010°19'0 0.0
2016-May-19 16:33N 59°29' E 010°19'0 0.0
2016-May-19 15:33N 59°29' E 010°19'0 0.0
2016-May-19 14:33N 59°29' E 010°19'0 0.0
2016-May-19 13:33N 59°29' E 010°19'0 0.0
2016-May-19 12:33N 59°29' E 010°19'0 0.0
2016-May-19 11:33N 59°29' E 010°19'0 0.0
2016-May-19 10:33N 59°29' E 010°19'0 0.0
2016-May-19 09:33N 59°29' E 010°19'0 0.0
2016-May-19 08:33N 59°29' E 010°19'0 0.0
2016-May-19 07:33N 59°29' E 010°19'0 0.0
2016-May-19 06:33N 59°29' E 010°19'0 0.0
2016-May-19 05:33N 59°29' E 010°19'0 0.0
2016-May-19 04:33N 59°29' E 010°19'0 0.0
2016-May-19 03:33N 59°29' E 010°19'0 0.0
2016-May-19 02:33N 59°30' E 010°19'0 0.0
2016-May-19 01:33N 59°29' E 010°19'0 0.0
2016-May-19 00:33N 59°29' E 010°19'0 0.0
2016-May-18 23:33N 59°29' E 010°19'0 0.0
2016-May-18 22:33N 59°29' E 010°19'0 0.0
2016-May-18 21:33N 59°29' E 010°19'0 0.0
2016-May-18 20:33N 59°29' E 010°19'0 0.0
2016-May-18 19:33N 59°29' E 010°19'0 0.0
2016-May-18 18:33N 59°29' E 010°19'0 0.0
2016-May-18 17:33N 59°29' E 010°19'0 0.0
2016-May-18 16:33N 59°29' E 010°19'0 0.0
2016-May-18 15:33N 59°29' E 010°19'0 0.0
2016-May-18 14:33N 59°29' E 010°19'0 0.0
2016-May-18 13:33N 59°29' E 010°19'0 0.0
2016-May-18 12:33N 59°29' E 010°19'0 0.0
2016-May-18 11:33N 59°29' E 010°19'0 0.0
2016-May-18 10:33N 59°29' E 010°19'0 0.0
2016-May-18 09:33N 59°29' E 010°19'0 0.0
2016-May-18 08:32N 59°29' E 010°19'0 0.0
2016-May-18 07:32N 59°29' E 010°19'0 0.0
2016-May-18 06:32N 59°29' E 010°19'0 0.0
2016-May-18 05:32N 59°29' E 010°19'0 0.0
2016-May-18 04:32N 59°29' E 010°19'0 0.0
2016-May-18 03:32N 59°29' E 010°19'0 0.0
2016-May-18 02:32N 59°29' E 010°19'0 0.0
2016-May-18 01:32N 59°29' E 010°19'0 0.0
2016-May-18 00:32N 59°29' E 010°19'0 0.0
2016-May-17 23:32N 59°29' E 010°19'0 0.0
2016-May-17 22:32N 59°29' E 010°19'0 0.0
2016-May-17 21:32N 59°29' E 010°19'0 0.0
2016-May-17 20:32N 59°29' E 010°19'  
Track history (hours):
 
Tides and Currents Weather Stations Pressure Air Temp Water Temp Dewpoint Dewpoint Depression Visibility Wind Speed Wind Dir Waves Ship Positions

Slotergracht

Last reported at 2016-May-27 20:17 UTC. Time now 2016-May-28 06:02 UTC.
Position N 57°47' E 010°12'.

Length 168 m; beam 25 m.

Type: Cargo ship. MMSI: 246456000.

Date/timePositionNaut miles runAvg speedWind from/ knotsBaromVisibWave heightAir tempDewpointWater temp
2016-May-27 20:17N 57°47' E 010°12'1317.7
2016-May-27 19:33N 57°49' E 010°36'10 9.8
2016-May-27 18:33N 57°42' E 010°49'5 2.1
2016-May-27 16:22N 57°42' E 010°40'0 0.0
2016-May-27 14:22N 57°42' E 010°40'0 0.0
2016-May-27 13:33N 57°42' E 010°40'0 0.0
2016-May-27 12:27N 57°42' E 010°40'0 0.1
2016-May-27 11:33N 57°42' E 010°40'1212.1
2016-May-27 10:33N 57°39' E 011°02'1717.3
2016-May-27 09:33N 57°28' E 011°27'1818.0
2016-May-27 08:33N 57°11' E 011°38'1817.8
2016-May-27 07:33N 56°54' E 011°49'1616.4
2016-May-27 06:33N 56°38' E 011°46'1818.1
2016-May-27 05:33N 56°22' E 011°29'2017.7
2016-May-27 04:26N 56°06' E 011°09'1717.8
2016-May-27 03:28N 55°51' E 010°52'1617.0
2016-May-27 02:31N 55°35' E 010°50'1717.5
2016-May-27 01:34N 55°20' E 011°03'1413.9
2016-May-27 00:34N 55°06' E 010°59'1817.6
2016-May-26 23:34N 54°50' E 010°50'1414.4
2016-May-26 22:34N 54°36' E 010°60'1818.0
2016-May-26 21:34N 54°31' E 011°29'1817.9
2016-May-26 20:33N 54°26' E 011°59'1514.9
2016-May-26 19:32N 54°37' E 012°17'1717.4
2016-May-26 18:34N 54°47' E 012°41'1817.9
2016-May-26 17:33N 54°53' E 013°10'1818.2
2016-May-26 16:34N 54°59' E 013°40'1717.4
2016-May-26 15:34N 55°07' E 014°07'1818.2
2016-May-26 14:33N 55°21' E 014°28'1818.0
2016-May-26 13:33N 55°32' E 014°52'  
2016-May-21 03:25N 55°40' E 015°33'1315.4
2016-May-21 02:33N 55°34' E 015°12'1515.6
2016-May-21 01:33N 55°26' E 014°49'1514.9
2016-May-21 00:34N 55°16' E 014°29'1515.3
2016-May-20 23:33N 55°04' E 014°12'1515.2
2016-May-20 22:33N 54°57' E 013°48'1715.7
2016-May-20 21:30N 54°52' E 013°21'1615.7
2016-May-20 20:30N 54°47' E 012°55'1515.7
2016-May-20 19:33N 54°40' E 012°32'1515.1
2016-May-20 18:33N 54°29' E 012°15'1413.9
2016-May-20 17:34N 54°25' E 011°52'1615.6
2016-May-20 16:33N 54°30' E 011°27'1616.0
2016-May-20 15:33N 54°38' E 011°03'1414.2
2016-May-20 14:33N 54°51' E 010°52'1514.7
2016-May-20 13:34N 55°04' E 011°02'1514.7
2016-May-20 12:33N 55°19' E 011°02'4313.8
2016-May-20 09:28N 56°01' E 011°05'3115.7
2016-May-20 07:28N 56°28' E 011°33'1415.5
2016-May-20 06:34N 56°40' E 011°46'1414.3
2016-May-20 05:33N 56°55' E 011°46'1515.1
2016-May-20 04:33N 57°09' E 011°37'1515.0
2016-May-20 03:33N 57°23' E 011°27'1515.0
2016-May-20 02:33N 57°37' E 011°19'1615.5
2016-May-20 01:33N 57°52' E 011°12'1615.7
2016-May-20 00:33N 58°08' E 011°04'1515.2
2016-May-19 23:34N 58°22' E 010°56'1515.3
2016-May-19 22:33N 58°37' E 010°48'1515.2
2016-May-19 21:33N 58°52' E 010°42'1515.3
2016-May-19 20:33N 59°07' E 010°36'1615.7
2016-May-19 19:33N 59°23' E 010°33'10 9.9
2016-May-19 18:33N 59°29' E 010°19'0 0.0
2016-May-19 17:33N 59°29' E 010°19'0 0.0
2016-May-19 16:33N 59°29' E 010°19'0 0.0
2016-May-19 15:33N 59°29' E 010°19'0 0.0
2016-May-19 14:33N 59°29' E 010°19'0 0.0
2016-May-19 13:33N 59°29' E 010°19'0 0.0
2016-May-19 12:33N 59°29' E 010°19'0 0.0
2016-May-19 11:33N 59°29' E 010°19'0 0.0
2016-May-19 10:33N 59°29' E 010°19'0 0.0
2016-May-19 09:33N 59°29' E 010°19'0 0.0
2016-May-19 08:33N 59°29' E 010°19'0 0.0
2016-May-19 07:33N 59°29' E 010°19'0 0.0
2016-May-19 06:33N 59°29' E 010°19'0 0.0
2016-May-19 05:33N 59°29' E 010°19'0 0.0
2016-May-19 04:33N 59°29' E 010°19'0 0.0
2016-May-19 03:33N 59°29' E 010°19'0 0.0
2016-May-19 02:33N 59°30' E 010°19'0 0.0
2016-May-19 01:33N 59°29' E 010°19'0 0.0
2016-May-19 00:33N 59°29' E 010°19'0 0.0
2016-May-18 23:33N 59°29' E 010°19'0 0.0
2016-May-18 22:33N 59°29' E 010°19'0 0.0
2016-May-18 21:33N 59°29' E 010°19'0 0.0
2016-May-18 20:33N 59°29' E 010°19'0 0.0
2016-May-18 19:33N 59°29' E 010°19'0 0.0
2016-May-18 18:33N 59°29' E 010°19'0 0.0
2016-May-18 17:33N 59°29' E 010°19'0 0.0
2016-May-18 16:33N 59°29' E 010°19'0 0.0
2016-May-18 15:33N 59°29' E 010°19'0 0.0
2016-May-18 14:33N 59°29' E 010°19'0 0.0
2016-May-18 13:33N 59°29' E 010°19'0 0.0
2016-May-18 12:33N 59°29' E 010°19'0 0.0
2016-May-18 11:33N 59°29' E 010°19'0 0.0
2016-May-18 10:33N 59°29' E 010°19'0 0.0
2016-May-18 09:33N 59°29' E 010°19'0 0.0
2016-May-18 08:32N 59°29' E 010°19'0 0.0
2016-May-18 07:32N 59°29' E 010°19'0 0.0
2016-May-18 06:32N 59°29' E 010°19'0 0.0
2016-May-18 05:32N 59°29' E 010°19'0 0.0
2016-May-18 04:32N 59°29' E 010°19'0 0.0
2016-May-18 03:32N 59°29' E 010°19'0 0.0
2016-May-18 02:32N 59°29' E 010°19'0 0.0
2016-May-18 01:32N 59°29' E 010°19'0 0.0
2016-May-18 00:32N 59°29' E 010°19'0 0.0
2016-May-17 23:32N 59°29' E 010°19'0 0.0
2016-May-17 22:32N 59°29' E 010°19'0 0.0
2016-May-17 21:32N 59°29' E 010°19'0 0.0
2016-May-17 20:32N 59°29' E 010°19'  

Dump ship's entire track history